Observations for LONDON GATWICK ARPT, United Kingdom (EGKK)

EGKK 201950Z 21005KT CAVOK 08/05 Q1022  
EGKK 201920Z 20005KT CAVOK 08/05 Q1022  
EGKK 201850Z 20005KT CAVOK 08/05 Q1021  
EGKK 201820Z 20006KT CAVOK 08/06 Q1021  
EGKK 201750Z 22005KT 180V250 CAVOK 09/06 Q1021  
EGKK 201720Z 21006KT 9999 FEW037 09/05 Q1021
EGKK 201650Z 21007KT 170V230 9999 FEW021 10/06 Q1021
EGKK 201620Z 22008KT 9999 FEW021 10/06 Q1021
EGKK 201550Z 21009KT 9999 FEW020 10/07 Q1021
EGKK 201520Z 21011KT 9999 SCT021 11/06 Q1021
EGKK 201450Z 23011KT 190V250 9999 SCT024 11/06 Q1021
EGKK 201420Z 23010KT 9999 SCT024 11/06 Q1020
EGKK 201350Z 21010KT 9999 SCT021 12/06 Q1021
EGKK 201320Z 23009KT 190V250 9999 FEW020 11/06 Q1021
EGKK 201250Z 23009KT 190V270 9999 SCT019 11/07 Q1021
EGKK 201220Z 23009KT 9999 SCT018 10/06 Q1021
EGKK 201150Z 24009KT 9999 SCT018 11/07 Q1021
EGKK 201120Z 22009KT 190V250 9999 SCT017 10/06 Q1021
EGKK 201050Z 23009KT 190V260 9999 BKN015 10/06 Q1021
EGKK 201020Z 21010KT 9999 SCT015 09/06 Q1020
EGKK 200950Z 22009KT 9999 FEW015 09/06 Q1020
EGKK 200920Z 22006KT 170V240 9999 FEW012 09/06 Q1020
EGKK 200850Z 21006KT 170V240 CAVOK 08/05 Q1020  
EGKK 200820Z 21006KT CAVOK 07/05 Q1020  
EGKK 200750Z 20005KT CAVOK 07/05 Q1019  
EGKK 200720Z 20006KT CAVOK 07/05 Q1019  
EGKK 200650Z 21005KT CAVOK 07/06 Q1019  
EGKK 200620Z 20006KT 160V230 9999 FEW008 07/06 Q1019
EGKK 200550Z 21006KT 170V230 9000 BKN008 07/06 Q1019
EGKK 200520Z 21007KT 9000 BKN008 07/06 Q1019
EGKK 200450Z 21006KT 9000 BKN007 07/06 Q1019
EGKK 200420Z 20005KT 150V220 7000 BKN007 07/06 Q1019
EGKK 200350Z 20005KT 8000 SCT008 07/06 Q1019
EGKK 200320Z 21004KT 9000 SCT008 07/06 Q1019
EGKK 200250Z 21004KT 170V240 9999 SCT009 07/06 Q1019
EGKK 200220Z 20005KT 9999 SCT010 07/05 Q1019
EGKK 200150Z 20004KT 9999 FEW046 06/05 Q1019
EGKK 200120Z 19003KT CAVOK 06/05 Q1019  
EGKK 200050Z 19004KT CAVOK 06/05 Q1019  
EGKK 200020Z 21004KT CAVOK 06/05 Q1019  
EGKK 192350Z 21005KT CAVOK 06/05 Q1019  
EGKK 192320Z 20004KT CAVOK 06/05 Q1020  
EGKK 192250Z 19004KT CAVOK 06/05 Q1020  
EGKK 192220Z 18004KT 9999 FEW022 06/05 Q1020
EGKK 192150Z 19004KT CAVOK 06/05 Q1020  
EGKK 192120Z 20005KT CAVOK 07/05 Q1020  
EGKK 192050Z 21006KT CAVOK 07/05 Q1020  
EGKK 192020Z 21006KT CAVOK 07/05 Q1020  
EGKK 191950Z 21006KT CAVOK 07/05 Q1019  
EGKK 191920Z 21007KT 9999 FEW022 07/06 Q1019